createdAt,value
2019-05-10T00:00:12.323Z,99.90
2019-05-10T00:03:00.461Z,99.90
2019-05-10T00:05:48.428Z,99.90
2019-05-10T00:08:36.499Z,99.90
2019-05-10T00:11:32.784Z,99.90
2019-05-10T00:14:34.346Z,99.90
2019-05-10T00:17:11.903Z,99.90
2019-05-10T00:19:41.902Z,99.90
2019-05-10T00:22:11.625Z,99.90
2019-05-10T00:24:41.708Z,99.90
2019-05-10T00:27:11.529Z,99.90
2019-05-10T00:29:41.281Z,99.90
2019-05-10T00:32:11.217Z,99.90
2019-05-10T00:34:40.981Z,99.90
2019-05-10T00:37:10.803Z,99.90
2019-05-10T00:39:40.611Z,99.90
2019-05-10T00:42:10.415Z,99.90
2019-05-10T00:44:40.247Z,99.90
2019-05-10T00:47:10.067Z,99.90
2019-05-10T00:49:39.993Z,99.90
2019-05-10T00:52:09.903Z,99.90
2019-05-10T00:54:39.811Z,99.90
2019-05-10T00:57:09.817Z,99.90
2019-05-10T00:59:39.630Z,99.90
2019-05-10T01:02:09.467Z,99.90
2019-05-10T01:04:40.192Z,99.90
2019-05-10T01:07:09.983Z,99.90
2019-05-10T01:09:39.959Z,99.90
2019-05-10T01:12:09.811Z,99.90
2019-05-10T01:14:39.556Z,99.90
2019-05-10T01:17:09.547Z,99.90
2019-05-10T01:19:39.295Z,99.90
2019-05-10T01:22:09.048Z,99.90
2019-05-10T01:24:38.741Z,99.90
2019-05-10T01:27:08.779Z,99.90
2019-05-10T01:29:39.725Z,99.90
2019-05-10T01:32:09.892Z,99.90
2019-05-10T01:34:39.691Z,99.90
2019-05-10T01:37:09.810Z,99.90
2019-05-10T01:39:39.522Z,99.90
2019-05-10T01:42:09.392Z,99.90
2019-05-10T01:44:39.145Z,99.90
2019-05-10T01:47:09.035Z,99.90
2019-05-10T01:49:38.875Z,99.90
2019-05-10T01:52:08.732Z,99.90
2019-05-10T01:54:38.456Z,99.90
2019-05-10T01:57:08.363Z,99.90
2019-05-10T01:59:38.274Z,99.90
2019-05-10T02:02:08.044Z,99.90
2019-05-10T02:04:37.732Z,99.90
2019-05-10T02:07:07.454Z,99.90
2019-05-10T02:09:37.209Z,99.90
2019-05-10T02:12:07.058Z,99.90
2019-05-10T02:14:36.854Z,99.90
2019-05-10T02:17:06.625Z,99.90
2019-05-10T02:19:36.410Z,99.90
2019-05-10T02:22:06.163Z,99.90
2019-05-10T02:24:37.394Z,99.90
2019-05-10T02:27:11.444Z,99.90
2019-05-10T02:29:41.182Z,99.90
2019-05-10T02:32:10.936Z,99.90
2019-05-10T02:34:40.792Z,99.90
2019-05-10T02:37:10.661Z,99.90
2019-05-10T02:39:40.466Z,99.90
2019-05-10T02:42:10.306Z,99.90
2019-05-10T02:44:40.289Z,99.90
2019-05-10T02:47:09.985Z,99.90
2019-05-10T02:49:40.026Z,99.90
2019-05-10T02:52:09.728Z,99.90
2019-05-10T02:54:40.095Z,99.90
2019-05-10T02:57:12.430Z,99.90
2019-05-10T02:59:43.988Z,99.90
2019-05-10T03:02:16.333Z,99.90
2019-05-10T03:04:47.342Z,99.90
2019-05-10T03:07:18.465Z,99.90
2019-05-10T03:09:50.108Z,99.90
2019-05-10T03:12:25.025Z,99.90
2019-05-10T03:14:56.628Z,99.90
2019-05-10T03:17:27.762Z,99.90
2019-05-10T03:19:59.282Z,99.90
2019-05-10T03:22:29.078Z,99.90
2019-05-10T03:24:58.768Z,99.90
2019-05-10T03:27:28.494Z,99.90
2019-05-10T03:29:58.246Z,99.90
2019-05-10T03:32:28.020Z,99.90
2019-05-10T03:34:58.169Z,99.90
2019-05-10T03:37:28.013Z,99.90
2019-05-10T03:39:57.804Z,99.90
2019-05-10T03:42:27.675Z,99.90
2019-05-10T03:44:57.420Z,99.90
2019-05-10T03:47:28.308Z,99.90
2019-05-10T03:49:58.013Z,99.90
2019-05-10T03:52:28.029Z,99.90
2019-05-10T03:54:57.832Z,99.90
2019-05-10T03:57:27.580Z,99.90
2019-05-10T03:59:57.504Z,99.90
2019-05-10T04:02:27.261Z,99.90
2019-05-10T04:04:57.021Z,99.90
2019-05-10T04:07:26.736Z,99.90
2019-05-10T04:09:56.449Z,99.90
2019-05-10T04:12:26.157Z,99.90
2019-05-10T04:14:56.015Z,99.90
2019-05-10T04:17:25.932Z,99.90
2019-05-10T04:19:56.679Z,99.90
2019-05-10T04:22:26.432Z,99.90
2019-05-10T04:24:56.286Z,99.90
2019-05-10T04:27:32.338Z,99.90
2019-05-10T04:29:57.673Z,99.90
2019-05-10T04:32:27.561Z,99.90
2019-05-10T04:34:57.259Z,99.90
2019-05-10T04:37:27.035Z,99.90
2019-05-10T04:39:56.905Z,99.90
2019-05-10T04:42:26.659Z,99.90
2019-05-10T04:44:56.510Z,99.90
2019-05-10T04:47:26.278Z,99.90
2019-05-10T04:49:56.067Z,99.90
2019-05-10T04:52:28.781Z,99.90
2019-05-10T04:54:58.186Z,99.90
2019-05-10T04:57:27.871Z,99.90
2019-05-10T04:59:57.816Z,99.90
2019-05-10T05:02:27.768Z,99.90
2019-05-10T05:04:57.544Z,99.90
2019-05-10T05:07:27.341Z,99.90
2019-05-10T05:09:57.139Z,99.90
2019-05-10T05:12:27.099Z,99.90
2019-05-10T05:14:56.819Z,99.90
2019-05-10T05:17:26.571Z,99.90
2019-05-10T05:19:56.471Z,99.90
2019-05-10T05:22:26.215Z,99.90
2019-05-10T05:25:01.253Z,99.90
2019-05-10T05:27:27.464Z,99.90
2019-05-10T05:29:57.196Z,99.90
2019-05-10T05:32:26.905Z,99.90
2019-05-10T05:34:56.641Z,99.90
2019-05-10T05:37:26.522Z,99.90
2019-05-10T05:39:56.235Z,99.90
2019-05-10T05:42:27.889Z,99.90
2019-05-10T05:44:57.333Z,99.90
2019-05-10T05:47:27.247Z,99.90
2019-05-10T05:49:57.307Z,99.90
2019-05-10T05:52:27.059Z,99.90
2019-05-10T05:54:57.438Z,99.90
2019-05-10T05:57:29.641Z,99.90
2019-05-10T06:00:03.946Z,99.90
2019-05-10T06:02:30.962Z,99.90
2019-05-10T06:05:01.032Z,99.90
2019-05-10T06:07:31.267Z,99.90
2019-05-10T06:10:02.544Z,99.90
2019-05-10T06:12:32.385Z,99.90
2019-05-10T06:15:02.136Z,99.90
2019-05-10T06:17:31.877Z,99.90
2019-05-10T06:20:06.070Z,99.90
2019-05-10T06:22:38.366Z,99.90
2019-05-10T06:25:05.392Z,99.90
2019-05-10T06:27:35.311Z,99.90
2019-05-10T06:30:07.397Z,99.90
2019-05-10T06:32:37.152Z,99.90
2019-05-10T06:35:07.141Z,99.90
2019-05-10T06:37:38.009Z,99.90
2019-05-10T06:40:08.506Z,99.90
2019-05-10T06:42:38.363Z,99.90
2019-05-10T06:45:15.812Z,99.90
2019-05-10T06:47:42.100Z,99.90
2019-05-10T06:50:12.790Z,99.90
2019-05-10T06:52:42.511Z,99.90
2019-05-10T06:55:12.606Z,99.90
2019-05-10T06:57:42.442Z,99.90
2019-05-10T07:00:12.798Z,99.90
2019-05-10T07:02:42.606Z,99.90
2019-05-10T07:05:12.724Z,99.90
2019-05-10T07:07:44.421Z,99.90
2019-05-10T07:10:18.994Z,99.90
2019-05-10T07:12:45.678Z,99.90
2019-05-10T07:15:16.576Z,99.90
2019-05-10T07:17:47.281Z,99.90
2019-05-10T07:20:17.406Z,99.90
2019-05-10T07:22:47.206Z,99.90
2019-05-10T07:25:17.932Z,99.90
2019-05-10T07:27:50.287Z,99.90
2019-05-10T07:30:30.131Z,99.90
2019-05-10T07:33:01.825Z,99.90
2019-05-10T07:35:36.805Z,99.90
2019-05-10T07:38:02.964Z,99.90
2019-05-10T07:40:32.688Z,99.90
2019-05-10T07:43:02.812Z,99.90
2019-05-10T07:45:32.581Z,99.90
2019-05-10T07:48:07.886Z,99.90
2019-05-10T07:50:33.906Z,99.90
2019-05-10T07:53:03.683Z,99.90
2019-05-10T07:55:33.521Z,99.90
2019-05-10T07:58:05.050Z,99.90
2019-05-10T08:00:38.007Z,99.90
2019-05-10T08:03:23.023Z,99.90
2019-05-10T08:05:55.012Z,99.90
2019-05-10T08:08:19.428Z,99.90
2019-05-10T08:10:49.304Z,99.90
2019-05-10T08:13:21.248Z,99.90
2019-05-10T08:15:50.714Z,99.90
2019-05-10T08:18:25.195Z,99.90
2019-05-10T08:20:56.786Z,99.90
2019-05-10T08:23:27.882Z,99.90
2019-05-10T08:25:55.012Z,99.90
2019-05-10T08:28:28.031Z,99.80
2019-05-10T08:30:58.696Z,99.20
2019-05-10T08:33:27.538Z,98.80
2019-05-10T08:36:00.663Z,98.70
2019-05-10T08:38:28.720Z,98.50
2019-05-10T08:40:58.641Z,98.80
2019-05-10T08:43:30.855Z,99.10
2019-05-10T08:46:02.425Z,98.80
2019-05-10T08:48:33.054Z,99.40
2019-05-10T08:51:06.322Z,99.70
2019-05-10T08:53:34.591Z,99.90
2019-05-10T08:56:07.556Z,99.90
2019-05-10T08:58:37.324Z,99.90
2019-05-10T09:01:20.124Z,99.40
2019-05-10T09:03:38.757Z,98.50
2019-05-10T09:06:11.782Z,98.60
2019-05-10T09:08:39.931Z,98.20
2019-05-10T09:11:09.709Z,97.70
2019-05-10T09:13:42.521Z,97.20
2019-05-10T09:16:13.343Z,96.60
2019-05-10T09:18:46.622Z,97.20
2019-05-10T09:21:14.481Z,97.30
2019-05-10T09:23:44.721Z,97.80
2019-05-10T09:26:16.576Z,98.20
2019-05-10T09:28:47.669Z,98.40
2019-05-10T09:31:22.002Z,98.60
2019-05-10T09:33:53.691Z,98.30
2019-05-10T09:36:23.045Z,97.70
2019-05-10T09:38:53.028Z,97.80
2019-05-10T09:41:27.673Z,97.00
2019-05-10T09:43:54.635Z,96.50
2019-05-10T09:46:24.491Z,95.30
2019-05-10T09:49:04.610Z,94.90
2019-05-10T09:51:30.130Z,94.90
2019-05-10T09:54:00.401Z,94.90
2019-05-10T09:56:33.112Z,94.80
2019-05-10T09:59:01.433Z,95.20
2019-05-10T10:01:31.177Z,95.50
2019-05-10T10:04:02.286Z,95.70
2019-05-10T10:06:33.474Z,96.00
2019-05-10T10:09:07.474Z,96.70
2019-05-10T10:11:36.611Z,97.40
2019-05-10T10:14:07.929Z,97.80
2019-05-10T10:16:38.062Z,98.10
2019-05-10T10:19:07.951Z,98.40
2019-05-10T10:21:38.906Z,98.40
2019-05-10T10:24:15.710Z,97.80
2019-05-10T10:26:40.597Z,97.90
2019-05-10T10:29:10.319Z,97.70
2019-05-10T10:31:51.372Z,97.90
2019-05-10T10:34:11.523Z,97.90
2019-05-10T10:36:43.948Z,97.50
2019-05-10T10:39:12.656Z,97.30
2019-05-10T10:41:42.585Z,95.60
2019-05-10T10:44:12.276Z,95.30
2019-05-10T10:46:42.007Z,95.10
2019-05-10T10:49:14.519Z,95.00
2019-05-10T10:51:43.211Z,94.60
2019-05-10T10:54:12.903Z,94.10
2019-05-10T10:56:42.681Z,94.30
2019-05-10T10:59:12.467Z,94.60
2019-05-10T11:01:49.927Z,94.60
2019-05-10T11:04:16.361Z,93.90
2019-05-10T11:06:46.324Z,93.90
2019-05-10T11:09:16.147Z,93.40
2019-05-10T11:11:45.913Z,93.30
2019-05-10T11:14:15.592Z,92.20
2019-05-10T11:16:46.684Z,91.50
2019-05-10T11:19:16.867Z,90.50
2019-05-10T11:21:46.764Z,90.10
2019-05-10T11:24:20.050Z,90.60
2019-05-10T11:26:47.990Z,90.70
2019-05-10T11:29:25.572Z,90.40
2019-05-10T11:32:10.371Z,91.00
2019-05-10T11:34:21.675Z,90.20
2019-05-10T11:36:51.594Z,89.30
2019-05-10T11:39:26.490Z,89.30
2019-05-10T11:42:02.224Z,88.90
2019-05-10T11:44:25.966Z,87.10
2019-05-10T11:46:55.880Z,85.10
2019-05-10T11:49:26.718Z,84.60
2019-05-10T11:51:58.643Z,85.40
2019-05-10T11:54:27.828Z,84.60
2019-05-10T11:56:58.547Z,83.00
2019-05-10T11:59:33.901Z,81.20
2019-05-10T12:02:02.786Z,80.30
2019-05-10T12:04:38.965Z,78.40
2019-05-10T12:07:08.459Z,78.40
2019-05-10T12:09:34.712Z,75.90
2019-05-10T12:12:04.706Z,74.50
2019-05-10T12:14:34.485Z,74.50
2019-05-10T12:17:06.316Z,74.00
2019-05-10T12:19:44.179Z,75.10
2019-05-10T12:22:07.108Z,75.50
2019-05-10T12:24:52.219Z,75.10
2019-05-10T12:27:18.694Z,73.50
2019-05-10T12:29:39.682Z,72.80
2019-05-10T12:32:10.406Z,73.80
2019-05-10T12:34:41.062Z,76.30
2019-05-10T12:37:11.108Z,76.40
2019-05-10T12:39:40.748Z,78.30
2019-05-10T12:42:11.324Z,78.50
2019-05-10T12:44:43.969Z,78.10
2019-05-10T12:47:13.366Z,78.50
2019-05-10T12:49:43.104Z,78.90
2019-05-10T12:52:14.327Z,79.00
2019-05-10T12:54:44.524Z,79.30
2019-05-10T12:57:14.219Z,80.50
2019-05-10T12:59:44.139Z,80.60
2019-05-10T13:02:13.942Z,81.30
2019-05-10T13:04:47.110Z,83.10
2019-05-10T13:07:15.064Z,87.80
2019-05-10T13:09:44.868Z,90.10
2019-05-10T13:12:14.796Z,91.10
2019-05-10T13:14:46.510Z,90.80
2019-05-10T13:17:17.128Z,92.10
2019-05-10T13:19:47.174Z,91.00
2019-05-10T13:22:16.897Z,90.90
2019-05-10T13:24:46.628Z,89.90
2019-05-10T13:27:16.358Z,89.60
2019-05-10T13:29:50.448Z,88.10
2019-05-10T13:32:20.458Z,87.30
2019-05-10T13:34:48.892Z,86.40
2019-05-10T13:37:23.583Z,86.10
2019-05-10T13:39:50.037Z,86.00
2019-05-10T13:42:19.739Z,86.10
2019-05-10T13:44:49.807Z,86.20
2019-05-10T13:47:19.593Z,85.80
2019-05-10T13:49:49.527Z,85.00
2019-05-10T13:52:19.399Z,85.00
2019-05-10T13:54:49.099Z,84.60
2019-05-10T13:57:18.864Z,84.60
2019-05-10T13:59:54.363Z,84.20
2019-05-10T14:02:22.856Z,85.00
2019-05-10T14:04:51.518Z,84.80
2019-05-10T14:07:21.338Z,84.30
2019-05-10T14:09:51.037Z,84.50
2019-05-10T14:12:23.174Z,83.90
2019-05-10T14:14:55.570Z,83.60
2019-05-10T14:17:23.729Z,83.50
2019-05-10T14:19:53.495Z,82.00
2019-05-10T14:22:23.256Z,81.80
2019-05-10T14:24:58.916Z,81.50
2019-05-10T14:27:29.815Z,80.90
2019-05-10T14:29:57.752Z,80.00
2019-05-10T14:32:27.640Z,80.80
2019-05-10T14:34:57.442Z,81.60
2019-05-10T14:37:27.259Z,81.70
2019-05-10T14:39:56.955Z,82.00
2019-05-10T14:42:31.104Z,82.50
2019-05-10T14:44:58.095Z,83.50
2019-05-10T14:47:27.804Z,83.90
2019-05-10T14:49:57.515Z,83.90
2019-05-10T14:52:27.299Z,84.10
2019-05-10T14:54:57.164Z,83.50
2019-05-10T14:57:26.977Z,84.00
2019-05-10T14:59:56.722Z,83.40
2019-05-10T15:02:26.418Z,83.60
2019-05-10T15:04:56.137Z,83.60
2019-05-10T15:07:26.781Z,84.20
2019-05-10T15:10:00.311Z,84.40
2019-05-10T15:12:27.879Z,84.00
2019-05-10T15:14:57.658Z,83.90
2019-05-10T15:17:30.008Z,82.70
2019-05-10T15:20:00.023Z,83.40
2019-05-10T15:22:30.105Z,83.00
2019-05-10T15:24:59.887Z,81.30
2019-05-10T15:27:29.705Z,79.30
2019-05-10T15:30:05.351Z,77.00
2019-05-10T15:32:30.987Z,76.70
2019-05-10T15:35:06.995Z,77.20
2019-05-10T15:37:32.107Z,76.40
2019-05-10T15:40:05.967Z,77.00
2019-05-10T15:42:36.122Z,78.40
2019-05-10T15:45:12.211Z,79.10
2019-05-10T15:47:49.947Z,79.60
2019-05-10T15:50:09.845Z,80.40
2019-05-10T15:52:46.106Z,80.70
2019-05-10T15:55:17.118Z,81.00
2019-05-10T15:57:43.561Z,81.30
2019-05-10T16:00:13.499Z,82.10
2019-05-10T16:02:43.277Z,82.30
2019-05-10T16:05:24.030Z,82.00
2019-05-10T16:07:46.323Z,82.80
2019-05-10T16:10:16.518Z,83.60
2019-05-10T16:12:46.201Z,84.00
2019-05-10T16:15:20.110Z,86.00
2019-05-10T16:17:47.496Z,86.90
2019-05-10T16:20:17.391Z,88.30
2019-05-10T16:22:47.130Z,89.20
2019-05-10T16:25:16.955Z,89.90
2019-05-10T16:27:50.091Z,90.40
2019-05-10T16:30:20.466Z,90.60
2019-05-10T16:32:50.310Z,90.60
2019-05-10T16:35:22.014Z,90.40
2019-05-10T16:37:51.822Z,90.70
2019-05-10T16:40:21.688Z,90.70
2019-05-10T16:42:51.437Z,90.00
2019-05-10T16:45:21.401Z,89.70
2019-05-10T16:47:51.185Z,90.00
2019-05-10T16:50:26.197Z,88.90
2019-05-10T16:52:52.527Z,89.80
2019-05-10T16:55:22.256Z,89.20
2019-05-10T16:57:52.020Z,88.00
2019-05-10T17:00:22.115Z,89.10
2019-05-10T17:02:51.825Z,90.00
2019-05-10T17:05:21.538Z,90.60
2019-05-10T17:07:53.703Z,91.20
2019-05-10T17:10:26.879Z,91.70
2019-05-10T17:12:54.152Z,92.10
2019-05-10T17:15:23.963Z,92.30
2019-05-10T17:17:53.737Z,92.30
2019-05-10T17:20:23.647Z,92.70
2019-05-10T17:22:53.482Z,92.90
2019-05-10T17:25:23.442Z,93.00
2019-05-10T17:27:57.762Z,92.60
2019-05-10T17:30:27.776Z,93.00
2019-05-10T17:32:57.858Z,93.10
2019-05-10T17:35:27.667Z,93.10
2019-05-10T17:37:57.369Z,93.40
2019-05-10T17:40:27.138Z,93.40
2019-05-10T17:42:56.912Z,93.60
2019-05-10T17:45:26.757Z,93.60
2019-05-10T17:47:56.448Z,93.20
2019-05-10T17:50:26.136Z,93.40
2019-05-10T17:52:55.898Z,93.70
2019-05-10T17:55:25.725Z,93.90
2019-05-10T17:57:56.628Z,94.00
2019-05-10T18:00:27.529Z,94.40
2019-05-10T18:02:57.261Z,95.00
2019-05-10T18:05:27.170Z,95.00
2019-05-10T18:07:56.967Z,95.40
2019-05-10T18:10:26.675Z,95.60
2019-05-10T18:12:57.490Z,95.90
2019-05-10T18:15:32.746Z,96.40
2019-05-10T18:18:02.557Z,96.70
2019-05-10T18:20:41.167Z,97.00
2019-05-10T18:23:02.235Z,97.20
2019-05-10T18:25:32.024Z,97.30
2019-05-10T18:28:01.741Z,97.60
2019-05-10T18:30:31.678Z,97.90
2019-05-10T18:33:01.538Z,98.40
2019-05-10T18:35:31.344Z,98.80
2019-05-10T18:38:01.117Z,99.00
2019-05-10T18:40:32.109Z,98.80
2019-05-10T18:43:04.521Z,99.00
2019-05-10T18:45:34.982Z,98.80
2019-05-10T18:48:04.870Z,98.80
2019-05-10T18:50:39.642Z,99.00
2019-05-10T18:53:06.214Z,99.00
2019-05-10T18:55:37.137Z,99.30
2019-05-10T18:58:06.955Z,99.40
2019-05-10T19:00:39.861Z,99.90
2019-05-10T19:03:09.328Z,99.90
2019-05-10T19:05:39.089Z,99.90
2019-05-10T19:08:08.947Z,99.90
2019-05-10T19:10:38.813Z,99.90
2019-05-10T19:13:08.878Z,99.90
2019-05-10T19:15:39.315Z,99.90
2019-05-10T19:18:09.110Z,99.90
2019-05-10T19:20:38.848Z,99.90
2019-05-10T19:23:13.239Z,99.90
2019-05-10T19:25:45.537Z,99.90
2019-05-10T19:28:11.572Z,99.90
2019-05-10T19:30:41.302Z,99.90
2019-05-10T19:33:11.165Z,99.90
2019-05-10T19:35:45.419Z,99.90
2019-05-10T19:38:13.565Z,99.90
2019-05-10T19:40:43.333Z,99.90
2019-05-10T19:43:15.203Z,99.90
2019-05-10T19:45:44.736Z,99.90
2019-05-10T19:48:14.512Z,99.90
2019-05-10T19:50:44.462Z,99.90
2019-05-10T19:53:14.365Z,99.90
2019-05-10T19:55:44.131Z,99.90
2019-05-10T19:58:14.014Z,99.90
2019-05-10T20:00:43.695Z,99.90
2019-05-10T20:03:13.402Z,99.90
2019-05-10T20:05:43.247Z,99.90
2019-05-10T20:08:13.059Z,99.90
2019-05-10T20:10:42.803Z,99.90
2019-05-10T20:13:12.579Z,99.90
2019-05-10T20:15:42.294Z,99.90
2019-05-10T20:18:12.419Z,99.90
2019-05-10T20:20:42.165Z,99.90
2019-05-10T20:23:11.855Z,99.90
2019-05-10T20:25:41.580Z,99.90
2019-05-10T20:28:11.348Z,99.90
2019-05-10T20:30:41.257Z,99.90
2019-05-10T20:33:11.294Z,99.90
2019-05-10T20:35:41.093Z,99.90
2019-05-10T20:38:11.077Z,99.90
2019-05-10T20:40:40.825Z,99.90
2019-05-10T20:43:10.850Z,99.90
2019-05-10T20:45:40.683Z,99.90
2019-05-10T20:48:10.403Z,99.90
2019-05-10T20:50:40.213Z,99.90
2019-05-10T20:53:13.085Z,99.90
2019-05-10T20:55:43.123Z,99.90
2019-05-10T20:58:13.003Z,99.90
2019-05-10T21:00:42.983Z,99.90
2019-05-10T21:03:12.700Z,99.90
2019-05-10T21:05:42.777Z,99.90
2019-05-10T21:08:17.119Z,99.90
2019-05-10T21:10:45.687Z,99.90
2019-05-10T21:13:16.028Z,99.90
2019-05-10T21:15:46.087Z,99.90
2019-05-10T21:18:15.961Z,99.90
2019-05-10T21:20:45.946Z,99.90
2019-05-10T21:23:15.740Z,99.90
2019-05-10T21:25:45.721Z,99.90
2019-05-10T21:28:15.621Z,99.90
2019-05-10T21:30:45.581Z,99.90
2019-05-10T21:33:15.462Z,99.90
2019-05-10T21:35:46.612Z,99.90
2019-05-10T21:38:31.635Z,99.90
2019-05-10T21:40:47.796Z,99.90
2019-05-10T21:43:17.521Z,99.90
2019-05-10T21:45:47.252Z,99.90
2019-05-10T21:48:17.048Z,99.90
2019-05-10T21:50:46.793Z,99.90
2019-05-10T21:53:16.555Z,99.90
2019-05-10T21:55:46.338Z,99.90
2019-05-10T21:58:16.033Z,99.90
2019-05-10T22:00:50.416Z,99.90
2019-05-10T22:03:21.959Z,99.90
2019-05-10T22:05:51.727Z,99.90
2019-05-10T22:08:21.432Z,99.90
2019-05-10T22:10:51.169Z,99.90
2019-05-10T22:13:20.919Z,99.90
2019-05-10T22:15:51.657Z,99.90
2019-05-10T22:18:21.546Z,99.90
2019-05-10T22:20:51.511Z,99.90
2019-05-10T22:23:21.163Z,99.90
2019-05-10T22:25:50.957Z,99.90
2019-05-10T22:28:20.611Z,99.90
2019-05-10T22:30:50.385Z,99.90
2019-05-10T22:33:20.176Z,99.90
2019-05-10T22:35:49.928Z,99.90
2019-05-10T22:38:19.649Z,99.90
2019-05-10T22:40:49.577Z,99.90
2019-05-10T22:43:19.326Z,99.90
2019-05-10T22:45:49.132Z,99.90
2019-05-10T22:48:19.347Z,99.90
2019-05-10T22:50:49.056Z,99.90
2019-05-10T22:53:18.826Z,99.90
2019-05-10T22:55:48.640Z,99.90
2019-05-10T22:58:18.460Z,99.90
2019-05-10T23:00:48.402Z,99.90
2019-05-10T23:03:18.529Z,99.90
2019-05-10T23:05:48.499Z,99.90
2019-05-10T23:08:18.488Z,99.90
2019-05-10T23:10:48.469Z,99.90
2019-05-10T23:13:20.311Z,99.90
2019-05-10T23:15:50.130Z,99.90
2019-05-10T23:18:19.896Z,99.90
2019-05-10T23:20:49.712Z,99.90
2019-05-10T23:23:21.089Z,99.90
2019-05-10T23:25:54.218Z,99.90
2019-05-10T23:28:25.108Z,99.90
2019-05-10T23:30:55.049Z,99.90
2019-05-10T23:33:24.843Z,99.90
2019-05-10T23:35:54.775Z,99.90
2019-05-10T23:38:24.579Z,99.90
2019-05-10T23:40:54.514Z,99.90
2019-05-10T23:43:25.803Z,99.90
2019-05-10T23:45:55.704Z,99.90
2019-05-10T23:48:28.207Z,99.90
2019-05-10T23:50:58.084Z,99.90
2019-05-10T23:53:27.893Z,99.90
2019-05-10T23:55:57.649Z,99.90
2019-05-10T23:58:31.869Z,99.90
